Time;durP1;ratioP1;P1;durP2;ratioP2;P2;SDS_P1;SDS_P2;PMS_P1;PMS_P2;Temp;Humidity;BMP_temperature;BMP_pressure;BME280_temperature;BME280_humidity;BME280_pressure;Samples;Min_cycle;Max_cycle;Signal;HPM_P1;HPM_P2
2023/08/12 07:27:44;;;;;;;9.27;5.60;;;21.80;98.00;;;;;;5047686;22;20442;-65
2023/08/12 07:30:12;;;;;;;12.47;5.83;;;22.00;98.00;;;;;;5031390;28;20495;-65
2023/08/12 07:32:39;;;;;;;10.27;6.17;;;22.10;98.00;;;;;;5032543;28;20973;-65
2023/08/12 07:35:07;;;;;;;8.77;5.40;;;22.30;98.00;;;;;;5032273;28;20509;-65
2023/08/12 07:37:34;;;;;;;8.97;5.70;;;22.50;98.00;;;;;;5032100;28;20451;-65
2023/08/12 07:40:01;;;;;;;13.10;6.27;;;22.70;98.00;;;;;;5032367;28;20447;-65
2023/08/12 07:42:28;;;;;;;8.93;5.70;;;22.90;98.00;;;;;;5032045;28;20524;-65
2023/08/12 07:44:56;;;;;;;10.20;5.30;;;23.00;98.00;;;;;;5014816;28;20513;-65
2023/08/12 07:47:23;;;;;;;8.57;5.50;;;23.10;98.00;;;;;;5032022;28;20455;-65
2023/08/12 07:49:50;;;;;;;8.13;5.13;;;23.20;98.00;;;;;;5014761;28;20870;-65
2023/08/12 07:52:17;;;;;;;9.83;5.67;;;23.40;98.00;;;;;;5031868;28;20450;-65
2023/08/12 07:54:44;;;;;;;10.70;5.73;;;23.40;98.00;;;;;;5014473;28;20908;-65
2023/08/12 07:57:11;;;;;;;9.50;5.33;;;23.50;98.00;;;;;;5031679;28;20465;-65
2023/08/12 07:59:38;;;;;;;8.43;5.03;;;23.50;98.00;;;;;;5031902;28;20976;-66
2023/08/12 08:02:07;;;;;;;7.60;5.17;;;23.60;98.00;;;;;;5031776;28;20454;-65
2023/08/12 08:04:35;;;;;;;9.70;5.77;;;23.60;98.00;;;;;;5031680;28;20454;-65
2023/08/12 08:07:18;;;;;;;10.13;5.40;;;23.70;98.00;;;;;;5031545;28;20454;-66
2023/08/12 08:09:45;;;;;;;11.33;6.00;;;24.00;98.00;;;;;;5030418;28;20548;-65
2023/08/12 08:12:13;;;;;;;9.17;5.60;;;24.10;98.00;;;;;;5031470;28;20450;-65
2023/08/12 08:14:40;;;;;;;8.17;5.43;;;24.20;98.00;;;;;;5031459;28;20494;-65
2023/08/12 08:17:08;;;;;;;9.30;5.77;;;24.40;98.00;;;;;;5013927;28;20957;-65
2023/08/12 08:19:35;;;;;;;7.90;5.67;;;24.60;98.00;;;;;;5031629;28;20477;-66
2023/08/12 08:22:02;;;;;;;6.93;4.97;;;24.70;98.00;;;;;;5031374;28;20455;-65
2023/08/12 08:24:30;;;;;;;10.20;5.57;;;24.80;98.00;;;;;;5031496;28;20490;-66
2023/08/12 08:26:57;;;;;;;8.47;5.50;;;25.10;98.00;;;;;;5031253;28;20929;-65
2023/08/12 08:29:24;;;;;;;8.40;5.57;;;25.30;98.00;;;;;;5031260;28;20458;-65
2023/08/12 08:31:51;;;;;;;12.23;6.00;;;25.30;98.00;;;;;;5031206;28;20451;-65
2023/08/12 08:34:20;;;;;;;9.53;5.67;;;25.50;98.00;;;;;;5031439;28;20458;-65
2023/08/12 08:36:47;;;;;;;9.97;5.70;;;25.70;98.00;;;;;;5030536;28;20582;-66
2023/08/12 08:39:14;;;;;;;13.43;5.60;;;25.90;98.00;;;;;;5031569;28;20454;-65
2023/08/12 08:41:41;;;;;;;9.47;5.70;;;26.10;98.00;;;;;;5031413;28;20872;-65
2023/08/12 08:44:09;;;;;;;9.80;5.67;;;26.20;98.00;;;;;;5030705;28;20504;-66
2023/08/12 08:46:40;;;;;;;9.10;5.70;;;26.30;98.00;;;;;;5031199;28;20454;-66
2023/08/12 08:49:07;;;;;;;8.03;5.50;;;26.40;98.00;;;;;;5031116;28;20466;-65
2023/08/12 08:51:36;;;;;;;8.63;5.50;;;26.40;98.00;;;;;;5031137;28;20451;-65
2023/08/12 08:54:04;;;;;;;8.63;5.27;;;26.30;98.00;;;;;;5031059;28;20455;-65
2023/08/12 08:56:32;;;;;;;10.13;5.90;;;26.20;98.00;;;;;;5031033;28;20541;-66
2023/08/12 08:59:00;;;;;;;9.17;5.40;;;26.40;98.00;;;;;;5030970;28;20494;-66
2023/08/12 09:01:29;;;;;;;9.20;5.33;;;26.60;98.00;;;;;;5031028;28;20482;-66
2023/08/12 09:03:58;;;;;;;11.60;6.27;;;26.80;98.00;;;;;;5031152;28;20465;-65
2023/08/12 09:06:27;;;;;;;8.97;5.67;;;27.00;98.00;;;;;;5030834;28;20995;-65
2023/08/12 09:08:56;;;;;;;8.70;5.40;;;27.10;98.00;;;;;;5030977;28;20662;-65
2023/08/12 09:11:24;;;;;;;9.00;5.80;;;27.10;98.00;;;;;;5030799;28;20454;-66
2023/08/12 09:13:52;;;;;;;8.67;5.63;;;27.20;98.00;;;;;;5030924;28;20459;-66
2023/08/12 09:16:19;;;;;;;10.53;6.20;;;27.20;98.00;;;;;;5030931;28;20505;-66
2023/08/12 09:18:46;;;;;;;8.87;5.27;;;27.30;98.00;;;;;;5030845;28;20458;-66
2023/08/12 09:21:13;;;;;;;9.27;5.73;;;27.40;98.00;;;;;;5030852;28;20454;-66
2023/08/12 09:23:42;;;;;;;8.50;5.30;;;27.50;98.00;;;;;;5030940;28;20458;-66
2023/08/12 09:26:19;;;;;;;8.33;5.57;;;27.50;98.00;;;;;;5030799;28;20450;-66
2023/08/12 09:28:46;;;;;;;8.73;5.87;;;27.50;98.00;;;;;;5028852;28;20481;-66
2023/08/12 09:31:24;;;;;;;12.00;5.73;;;27.50;98.00;;;;;;5030887;28;20450;-65
2023/08/12 09:33:52;;;;;;;9.03;5.50;;;27.70;98.00;;;;;;5031320;28;20485;-65
2023/08/12 09:36:22;;;;;;;9.23;5.57;;;28.00;98.00;;;;;;5030794;28;20489;-65
2023/08/12 09:38:49;;;;;;;8.60;5.60;;;28.30;98.00;;;;;;5030773;28;20493;-66
2023/08/12 09:41:17;;;;;;;8.03;5.13;;;28.60;98.00;;;;;;5030727;28;20461;-66
2023/08/12 09:43:50;;;;;;;7.77;5.37;;;29.00;98.00;;;;;;5030700;28;20446;-66
2023/08/12 09:46:17;;;;;;;8.27;5.30;;;29.10;98.00;;;;;;5030739;28;20504;-66
2023/08/12 09:48:45;;;;;;;11.77;5.50;;;29.00;98.00;;;;;;5015975;28;20469;-65
2023/08/12 09:51:12;;;;;;;9.43;4.70;;;28.90;98.00;;;;;;5034157;28;20451;-66
2023/08/12 09:53:41;;;;;;;13.30;4.43;;;29.10;98.00;;;;;;5034283;28;20455;-65
2023/08/12 09:56:12;;;;;;;6.60;4.37;;;29.40;98.00;;;;;;5034005;28;20486;-65
2023/08/12 09:58:47;;;;;;;6.23;4.37;;;29.50;98.00;;;;;;5034113;28;20461;-66
2023/08/12 10:01:19;;;;;;;4.97;3.60;;;29.80;98.00;;;;;;5034195;28;20458;-66
2023/08/12 10:03:51;;;;;;;6.67;4.27;;;29.90;97.80;;;;;;5033980;28;20465;-65
2023/08/12 10:06:19;;;;;;;5.00;3.53;;;30.10;98.00;;;;;;5034057;28;20482;-66
2023/08/12 10:08:47;;;;;;;5.30;3.80;;;30.30;95.60;;;;;;5033927;28;20941;-66
2023/08/12 10:11:15;;;;;;;5.53;3.80;;;30.40;98.00;;;;;;5034120;28;20483;-66
2023/08/12 10:13:44;;;;;;;4.87;3.67;;;30.70;96.90;;;;;;5033712;28;20545;-66
2023/08/12 10:16:12;;;;;;;5.00;3.80;;;30.90;95.30;;;;;;5033545;28;20493;-66
2023/08/12 10:18:41;;;;;;;5.60;3.90;;;31.10;93.80;;;;;;5033633;28;20537;-66
2023/08/12 10:21:10;;;;;;;5.70;3.67;;;31.10;93.60;;;;;;5033934;28;20490;-66
2023/08/12 10:23:45;;;;;;;6.43;4.23;;;31.30;95.00;;;;;;5033837;28;20525;-66
2023/08/12 10:26:13;;;;;;;6.60;4.13;;;31.40;93.80;;;;;;5033728;28;20443;-66
2023/08/12 10:28:41;;;;;;;6.70;4.33;;;31.30;93.40;;;;;;5016366;28;20467;-66
2023/08/12 10:31:09;;;;;;;10.10;4.43;;;31.20;94.50;;;;;;5033551;28;20443;-65
2023/08/12 10:33:38;;;;;;;8.57;4.80;;;30.90;95.70;;;;;;5033447;28;20461;-66
2023/08/12 10:36:06;;;;;;;6.80;4.23;;;30.80;96.70;;;;;;5033366;28;20556;-66
2023/08/12 10:38:33;;;;;;;5.87;4.00;;;30.70;96.10;;;;;;5033677;28;20479;-66
2023/08/12 10:41:19;;;;;;;6.90;4.10;;;30.60;95.10;;;;;;5033277;28;20529;-65
2023/08/12 10:44:06;;;;;;;5.47;3.83;;;30.40;96.30;;;;;;5032289;28;20497;-65
2023/08/12 10:46:36;;;;;;;6.03;4.13;;;30.20;95.60;;;;;;5033308;28;20455;-66
2023/08/12 10:49:08;;;;;;;5.60;3.90;;;30.10;97.60;;;;;;5033431;28;20513;-66
2023/08/12 10:51:47;;;;;;;6.60;4.00;;;30.20;96.50;;;;;;5033276;28;20459;-65
2023/08/12 10:54:22;;;;;;;5.30;3.80;;;30.30;95.90;;;;;;5033077;28;20470;-65
2023/08/12 10:57:10;;;;;;;5.20;3.60;;;30.30;94.50;;;;;;5033171;28;20489;-66
2023/08/12 10:59:51;;;;;;;5.50;4.10;;;30.40;96.60;;;;;;5032397;28;20451;-66
2023/08/12 11:02:23;;;;;;;6.87;4.60;;;30.60;96.30;;;;;;5032861;28;20512;-66
2023/08/12 11:04:51;;;;;;;7.27;4.30;;;30.60;94.60;;;;;;5033037;28;20465;-65
2023/08/12 11:07:20;;;;;;;5.47;3.90;;;30.50;95.10;;;;;;5032847;28;20458;-65
2023/08/12 11:09:52;;;;;;;9.33;4.40;;;30.50;95.30;;;;;;5031564;28;20459;-65
2023/08/12 11:12:28;;;;;;;5.73;4.00;;;30.40;96.10;;;;;;5032718;28;20957;-66
2023/08/12 11:14:55;;;;;;;5.60;4.03;;;30.30;96.20;;;;;;5032924;28;20508;-66
2023/08/12 11:17:30;;;;;;;6.77;3.87;;;30.30;96.40;;;;;;5032586;28;20997;-66
2023/08/12 11:19:58;;;;;;;5.80;4.10;;;30.10;96.20;;;;;;5032728;28;20462;-66
2023/08/12 11:22:25;;;;;;;6.53;4.20;;;30.10;97.20;;;;;;5015476;28;20451;-65
2023/08/12 11:24:56;;;;;;;7.10;4.23;;;30.10;97.50;;;;;;5032779;28;20458;-66
2023/08/12 11:27:23;;;;;;;6.10;4.30;;;30.10;97.40;;;;;;5032448;28;20451;-66
2023/08/12 11:29:53;;;;;;;8.53;4.10;;;30.10;96.20;;;;;;5032350;28;20900;-66
2023/08/12 11:32:21;;;;;;;6.53;4.30;;;30.50;98.00;;;;;;5032521;28;20498;-66
2023/08/12 11:34:49;;;;;;;5.63;4.13;;;31.20;95.90;;;;;;5032375;28;20455;-66
2023/08/12 11:37:17;;;;;;;8.30;4.40;;;31.80;95.20;;;;;;5032228;28;20479;-66
2023/08/12 11:39:44;;;;;;;6.00;3.80;;;32.30;93.50;;;;;;5032238;28;20455;-66
2023/08/12 11:42:11;;;;;;;7.20;4.37;;;32.70;92.60;;;;;;5032419;28;20458;-66
2023/08/12 11:44:40;;;;;;;6.07;4.10;;;33.20;90.30;;;;;;5032265;28;20827;-66
2023/08/12 11:47:07;;;;;;;6.67;4.20;;;33.60;89.00;;;;;;5032154;28;20465;-66
2023/08/12 11:49:34;;;;;;;4.80;3.80;;;33.90;90.00;;;;;;5032078;28;20816;-66
2023/08/12 11:52:03;;;;;;;5.07;3.90;;;34.20;86.50;;;;;;5032192;28;20463;-66
2023/08/12 11:54:31;;;;;;;5.43;3.67;;;34.40;86.00;;;;;;5032114;28;20490;-66
2023/08/12 11:56:59;;;;;;;5.00;3.53;;;34.60;85.90;;;;;;5014423;28;20905;-66
2023/08/12 11:59:27;;;;;;;4.80;3.77;;;34.60;84.40;;;;;;5031911;28;20459;-66
2023/08/12 12:01:56;;;;;;;6.13;4.27;;;34.70;83.70;;;;;;5031723;28;20556;-66
2023/08/12 12:04:23;;;;;;;5.43;3.97;;;34.80;85.70;;;;;;5031773;28;20964;-66
2023/08/12 12:06:50;;;;;;;7.43;3.87;;;35.00;86.10;;;;;;5031080;28;20442;-66
2023/08/12 12:09:20;;;;;;;6.17;4.03;;;35.00;84.50;;;;;;5031673;28;20450;-66
2023/08/12 12:11:47;;;;;;;6.80;3.73;;;34.50;84.60;;;;;;5030731;28;20446;-66
2023/08/12 12:14:14;;;;;;;4.10;3.40;;;33.80;83.90;;;;;;5031714;28;20457;-66
2023/08/12 12:16:42;;;;;;;4.73;3.77;;;33.20;86.00;;;;;;5031712;28;20482;-66
2023/08/12 12:19:17;;;;;;;10.33;3.70;;;32.80;86.30;;;;;;5031729;28;20953;-66
2023/08/12 12:21:47;;;;;;;5.57;3.80;;;32.50;88.20;;;;;;5031890;28;20486;-66
2023/08/12 12:24:14;;;;;;;8.17;3.87;;;32.20;88.00;;;;;;5031489;28;20435;-66
2023/08/12 12:26:43;;;;;;;5.83;3.70;;;32.50;88.80;;;;;;5031331;28;20447;-66
2023/08/12 12:29:11;;;;;;;6.83;4.00;;;32.80;89.30;;;;;;5031262;28;20486;-66
2023/08/12 12:31:38;;;;;;;4.97;3.70;;;32.70;88.90;;;;;;5031479;28;20454;-66
2023/08/12 12:34:06;;;;;;;7.40;4.30;;;32.20;89.20;;;;;;5031399;28;20454;-66
2023/08/12 12:36:34;;;;;;;5.93;3.90;;;31.80;90.30;;;;;;5031312;28;20487;-66
2023/08/12 12:39:03;;;;;;;7.33;4.30;;;31.30;93.80;;;;;;5031190;28;20466;-66
2023/08/12 12:41:30;;;;;;;8.20;4.77;;;30.80;95.70;;;;;;5031365;28;20849;-66
2023/08/12 12:44:00;;;;;;;7.23;4.40;;;30.10;98.00;;;;;;5031153;28;20462;-66
2023/08/12 12:46:29;;;;;;;6.07;4.03;;;29.60;98.00;;;;;;5031063;28;20803;-66
2023/08/12 12:48:57;;;;;;;6.80;4.73;;;29.10;98.00;;;;;;5031154;28;20469;-65
2023/08/12 12:51:25;;;;;;;9.23;5.10;;;28.50;98.00;;;;;;5013364;28;20830;-65
2023/08/12 12:53:52;;;;;;;9.53;4.40;;;27.90;98.00;;;;;;5031180;28;20485;-65
2023/08/12 12:56:20;;;;;;;10.13;4.90;;;27.30;98.00;;;;;;5030992;28;20967;-65
2023/08/12 12:58:47;;;;;;;8.10;4.77;;;26.80;98.00;;;;;;5031057;28;20459;-65
2023/08/12 13:01:16;;;;;;;11.27;5.03;;;26.40;98.00;;;;;;5031062;28;20546;-64
2023/08/12 13:05:55;;;;;;;8.80;4.20;;;25.80;98.00;;;;;;5129684;27;20908;-65
2023/08/12 13:08:22;;;;;;;11.60;4.50;;;25.60;98.00;;;;;;5108049;28;20504;-65
2023/08/12 13:10:49;;;;;;;6.80;4.47;;;25.40;98.00;;;;;;5109336;28;20801;-65
2023/08/12 13:13:18;;;;;;;8.90;4.40;;;25.10;98.00;;;;;;5109532;28;20454;-65
2023/08/12 13:15:46;;;;;;;8.10;4.60;;;24.90;98.00;;;;;;5109036;28;20458;-65
2023/08/12 13:18:16;;;;;;;7.40;4.37;;;24.60;98.00;;;;;;5108936;28;20448;-65
2023/08/12 13:20:44;;;;;;;8.97;4.73;;;24.50;98.00;;;;;;5107696;28;20461;-65
2023/08/12 13:23:12;;;;;;;6.77;4.57;;;24.50;98.00;;;;;;5109045;28;20447;-65
2023/08/12 13:25:40;;;;;;;6.37;3.90;;;24.50;98.00;;;;;;5107404;28;20562;-65
2023/08/12 13:28:08;;;;;;;7.07;4.30;;;24.60;98.00;;;;;;5107365;28;20450;-65
2023/08/12 13:30:35;;;;;;;8.43;4.80;;;24.60;98.00;;;;;;5108672;28;20456;-65
2023/08/12 13:33:02;;;;;;;7.47;4.00;;;24.50;98.00;;;;;;5108514;28;20867;-65
2023/08/12 13:35:29;;;;;;;7.37;4.17;;;24.40;98.00;;;;;;5108707;28;20471;-65
2023/08/12 13:37:56;;;;;;;7.43;4.70;;;24.40;98.00;;;;;;5108507;28;20784;-65
2023/08/12 13:40:27;;;;;;;7.07;4.40;;;24.50;98.00;;;;;;5108569;28;20447;-65
2023/08/12 13:42:55;;;;;;;8.07;4.50;;;24.40;98.00;;;;;;5108397;28;20459;-65
2023/08/12 13:45:23;;;;;;;8.37;4.70;;;24.40;98.00;;;;;;5108262;28;20570;-65
2023/08/12 13:47:52;;;;;;;13.17;4.60;;;24.40;98.00;;;;;;5106940;28;20815;-65
2023/08/12 13:50:19;;;;;;;5.93;4.17;;;24.30;98.00;;;;;;5108311;28;20530;-65
2023/08/12 13:52:47;;;;;;;8.50;4.23;;;24.30;98.00;;;;;;5108455;28;20493;-65
2023/08/12 13:55:14;;;;;;;8.90;4.97;;;24.30;98.00;;;;;;5108149;28;20487;-65
2023/08/12 13:57:43;;;;;;;6.57;3.97;;;24.30;98.00;;;;;;5108419;28;20451;-65
2023/08/12 14:00:13;;;;;;;5.60;4.00;;;24.40;98.00;;;;;;5108033;28;20824;-65
2023/08/12 14:02:40;;;;;;;6.00;4.10;;;24.50;98.00;;;;;;5108232;28;20455;-65
2023/08/12 14:05:08;;;;;;;7.77;3.80;;;24.50;98.00;;;;;;5107896;28;21022;-65
2023/08/12 14:07:37;;;;;;;6.73;4.13;;;24.60;98.00;;;;;;5106956;28;20448;-65
2023/08/12 14:10:06;;;;;;;6.80;4.20;;;24.80;98.00;;;;;;5107997;28;20479;-65
2023/08/12 14:12:33;;;;;;;6.07;4.20;;;24.90;98.00;;;;;;5107945;28;20541;-65
2023/08/12 14:15:01;;;;;;;8.47;4.53;;;25.00;98.00;;;;;;5107229;28;20455;-65
2023/08/12 14:17:28;;;;;;;6.63;4.23;;;25.20;98.00;;;;;;5093782;28;20456;-65
2023/08/12 14:19:56;;;;;;;6.80;4.37;;;25.70;98.00;;;;;;5094170;28;20467;-65
2023/08/12 14:22:23;;;;;;;6.30;4.37;;;26.30;98.00;;;;;;5093951;28;20456;-65
2023/08/12 14:24:57;;;;;;;5.63;3.97;;;27.00;98.00;;;;;;5093969;28;20506;-65
2023/08/12 14:27:24;;;;;;;7.23;4.10;;;27.40;98.00;;;;;;5092918;28;20466;-65
2023/08/12 14:29:51;;;;;;;7.87;4.53;;;27.70;98.00;;;;;;5094296;28;20451;-65
2023/08/12 14:32:20;;;;;;;10.00;3.80;;;28.40;98.00;;;;;;5093953;28;20474;-65
2023/08/12 14:34:47;;;;;;;7.70;4.20;;;29.10;98.00;;;;;;5093781;28;20457;-65
2023/08/12 14:37:14;;;;;;;7.00;4.40;;;29.40;98.00;;;;;;5093784;28;20456;-65
2023/08/12 14:39:42;;;;;;;7.37;4.40;;;29.80;98.00;;;;;;5093938;28;20976;-65
2023/08/12 14:42:10;;;;;;;8.17;4.87;;;30.20;98.00;;;;;;5093695;28;20466;-66
2023/08/12 14:44:37;;;;;;;6.33;4.00;;;30.40;98.00;;;;;;5093786;28;20483;-66
2023/08/12 14:47:05;;;;;;;6.43;3.97;;;30.60;98.00;;;;;;5093673;28;20447;-66
2023/08/12 14:49:34;;;;;;;8.03;4.50;;;30.70;98.00;;;;;;5093602;28;20855;-65
2023/08/12 14:52:01;;;;;;;6.73;4.27;;;30.80;98.00;;;;;;5093657;28;20845;-66
2023/08/12 14:54:28;;;;;;;6.10;4.70;;;30.90;98.00;;;;;;5093614;28;20448;-66
2023/08/12 14:56:55;;;;;;;5.20;3.50;;;31.10;98.00;;;;;;5093696;28;20852;-65
2023/08/12 14:59:23;;;;;;;6.50;4.30;;;31.30;98.00;;;;;;5093719;28;20455;-66
2023/08/12 15:01:50;;;;;;;7.90;3.63;;;31.60;98.00;;;;;;5093841;28;20456;-65
2023/08/12 15:04:18;;;;;;;5.30;3.80;;;31.70;98.00;;;;;;5093244;28;20452;-66
2023/08/12 15:06:46;;;;;;;7.30;3.77;;;31.70;98.00;;;;;;5093680;28;20460;-65
2023/08/12 15:09:16;;;;;;;8.40;4.30;;;31.80;98.00;;;;;;5093351;28;20811;-66
2023/08/12 15:11:43;;;;;;;5.17;4.00;;;32.00;98.00;;;;;;5093246;28;20625;-66
2023/08/12 15:14:11;;;;;;;4.57;3.50;;;32.10;98.00;;;;;;5093093;28;20475;-66
2023/08/12 15:16:38;;;;;;;5.83;3.60;;;32.20;98.00;;;;;;5093038;28;20456;-65
2023/08/12 15:19:05;;;;;;;5.23;3.60;;;31.80;98.00;;;;;;5093086;28;20497;-66
2023/08/12 15:21:32;;;;;;;7.90;4.03;;;31.80;98.00;;;;;;5093090;28;20475;-66
2023/08/12 15:24:00;;;;;;;4.80;3.20;;;31.90;98.00;;;;;;5092900;28;20452;-66
2023/08/12 15:26:28;;;;;;;5.13;3.50;;;31.70;98.00;;;;;;5092851;28;20983;-66
2023/08/12 15:28:55;;;;;;;5.07;3.50;;;31.70;98.00;;;;;;5091732;28;20467;-66
2023/08/12 15:31:22;;;;;;;5.13;3.40;;;31.90;98.00;;;;;;5093064;28;20841;-66
2023/08/12 15:33:49;;;;;;;4.73;3.00;;;32.00;98.00;;;;;;5092771;28;20447;-66
2023/08/12 15:36:16;;;;;;;4.60;3.27;;;32.00;98.00;;;;;;5091516;28;20447;-66
2023/08/12 15:38:43;;;;;;;6.43;3.70;;;32.00;98.00;;;;;;5092695;28;20978;-66
2023/08/12 15:41:15;;;;;;;5.53;3.50;;;31.70;98.00;;;;;;5092517;28;20455;-66
2023/08/12 15:43:43;;;;;;;5.80;3.67;;;31.70;98.00;;;;;;5092616;28;20444;-66
2023/08/12 15:46:10;;;;;;;7.80;3.93;;;31.60;98.00;;;;;;5092127;28;20475;-66
2023/08/12 15:48:38;;;;;;;5.43;3.77;;;31.70;98.00;;;;;;5092619;28;20831;-66
2023/08/12 15:51:05;;;;;;;5.47;3.83;;;31.40;98.00;;;;;;5092509;28;20505;-67
2023/08/12 15:53:32;;;;;;;5.23;3.57;;;30.90;98.00;;;;;;5091436;28;20456;-65
2023/08/12 15:55:59;;;;;;;4.63;3.57;;;30.30;98.00;;;;;;5092346;28;20444;-66
2023/08/12 15:58:27;;;;;;;6.70;4.10;;;29.70;98.00;;;;;;5092355;28;20599;-65
2023/08/12 16:00:54;;;;;;;6.70;3.60;;;29.20;98.00;;;;;;5092255;28;20448;-66
2023/08/12 16:03:21;;;;;;;5.70;3.53;;;28.70;98.00;;;;;;5090799;28;20974;-66
2023/08/12 16:05:49;;;;;;;5.90;3.73;;;28.30;98.00;;;;;;5092447;28;20475;-66
2023/08/12 16:08:17;;;;;;;5.53;4.00;;;27.90;98.00;;;;;;5092605;28;20558;-65
2023/08/12 16:10:53;;;;;;;6.50;4.03;;;27.70;98.00;;;;;;5092481;28;20452;-65
2023/08/12 16:13:22;;;;;;;6.00;4.10;;;27.50;98.00;;;;;;5092409;28;20977;-66
2023/08/12 16:15:55;;;;;;;8.03;4.10;;;27.20;98.00;;;;;;5089803;28;20501;-66
2023/08/12 16:18:23;;;;;;;5.80;4.07;;;27.00;98.00;;;;;;5092549;28;20814;-65
2023/08/12 16:20:51;;;;;;;5.90;3.97;;;26.80;98.00;;;;;;5092290;28;20953;-65
2023/08/12 16:23:18;;;;;;;9.20;4.30;;;26.50;98.00;;;;;;5091929;28;20910;-65
2023/08/12 16:25:45;;;;;;;5.67;3.80;;;26.40;98.00;;;;;;5092387;28;20484;-65
2023/08/12 16:28:12;;;;;;;8.03;4.47;;;26.20;98.00;;;;;;5091830;28;20974;-65
2023/08/12 16:30:40;;;;;;;8.47;5.27;;;26.00;98.00;;;;;;5092449;28;20792;-65
2023/08/12 16:33:09;;;;;;;6.03;4.00;;;25.80;98.00;;;;;;5092172;28;20807;-65
2023/08/12 16:35:36;;;;;;;7.17;4.40;;;26.00;98.00;;;;;;5091080;28;20448;-65
2023/08/12 16:38:04;;;;;;;8.97;4.73;;;26.10;98.00;;;;;;5092021;28;20456;-65
2023/08/12 16:40:32;;;;;;;6.63;4.23;;;25.90;98.00;;;;;;5091890;28;20937;-65
2023/08/12 16:43:01;;;;;;;7.80;4.67;;;25.70;98.00;;;;;;5092157;28;20487;-65
2023/08/12 16:45:28;;;;;;;9.30;4.30;;;25.60;98.00;;;;;;5092201;28;20480;-65
2023/08/12 16:47:55;;;;;;;6.17;4.10;;;25.50;98.00;;;;;;5092347;28;20452;-65
2023/08/12 16:50:23;;;;;;;7.03;4.20;;;25.40;98.00;;;;;;5092079;28;20459;-64
2023/08/12 16:52:50;;;;;;;6.40;4.10;;;25.50;98.00;;;;;;5090645;28;20482;-65
2023/08/12 16:55:18;;;;;;;6.00;4.00;;;25.40;98.00;;;;;;5091696;28;20505;-65
2023/08/12 16:57:45;;;;;;;7.50;4.30;;;25.30;98.00;;;;;;5091817;28;20448;-65
2023/08/12 17:00:13;;;;;;;7.87;4.47;;;25.20;98.00;;;;;;5091854;28;20467;-66
2023/08/12 17:02:40;;;;;;;5.47;4.13;;;25.30;98.00;;;;;;5091239;28;20463;-65
2023/08/12 17:05:09;;;;;;;7.57;4.30;;;25.40;98.00;;;;;;5091270;28;20506;-65
2023/08/12 17:07:38;;;;;;;8.73;4.93;;;25.40;98.00;;;;;;5090375;28;20938;-65
2023/08/12 17:10:05;;;;;;;7.60;4.23;;;25.20;98.00;;;;;;5091683;28;20456;-65
2023/08/12 17:12:33;;;;;;;6.23;4.00;;;25.10;98.00;;;;;;5091504;28;20447;-65
2023/08/12 17:15:00;;;;;;;7.83;4.50;;;25.10;98.00;;;;;;5090427;28;20451;-65
2023/08/12 17:17:27;;;;;;;10.40;4.93;;;25.10;98.00;;;;;;5091508;28;20459;-65
2023/08/12 17:19:54;;;;;;;8.67;5.17;;;25.30;98.00;;;;;;5091620;28;20543;-65
2023/08/12 17:22:21;;;;;;;8.27;5.37;;;25.30;98.00;;;;;;5091619;28;20451;-64
2023/08/12 17:24:49;;;;;;;7.20;4.80;;;25.30;98.00;;;;;;5091517;28;20448;-65
2023/08/12 17:27:27;;;;;;;7.00;4.23;;;25.40;98.00;;;;;;5091720;28;20803;-64
2023/08/12 17:29:54;;;;;;;6.13;4.30;;;25.20;98.00;;;;;;5091561;28;20455;-65
2023/08/12 17:32:23;;;;;;;7.07;4.47;;;25.20;98.00;;;;;;5091403;28;20460;-69
2023/08/12 17:34:50;;;;;;;4.80;3.07;;;25.20;98.00;;;;;;5091517;28;20460;-68
2023/08/12 17:37:17;;;;;;;4.80;3.40;;;25.10;98.00;;;;;;5091619;28;20448;-71
2023/08/12 17:39:45;;;;;;;6.80;3.90;;;25.30;98.00;;;;;;5090443;28;20991;-67
2023/08/12 17:42:13;;;;;;;6.87;4.20;;;25.30;98.00;;;;;;5091706;28;20456;-69
2023/08/12 17:44:40;;;;;;;9.60;4.27;;;25.40;98.00;;;;;;5091683;28;20927;-68
2023/08/12 17:47:07;;;;;;;6.40;4.13;;;25.50;98.00;;;;;;5091244;28;20480;-66
2023/08/12 17:49:34;;;;;;;5.50;3.90;;;25.70;98.00;;;;;;5091479;28;20444;-70
2023/08/12 17:52:02;;;;;;;7.77;4.33;;;25.70;98.00;;;;;;5092923;28;20460;-67
2023/08/12 17:54:31;;;;;;;9.13;4.40;;;25.70;98.00;;;;;;5095054;28;20505;-68
2023/08/12 17:56:58;;;;;;;7.77;4.23;;;25.40;98.00;;;;;;5095016;28;20440;-72
2023/08/12 17:59:26;;;;;;;7.90;4.43;;;25.30;98.00;;;;;;5094977;28;20799;-65
2023/08/12 18:01:53;;;;;;;7.13;4.63;;;25.30;98.00;;;;;;5094520;28;20930;-66
2023/08/12 18:04:20;;;;;;;8.30;5.13;;;25.30;98.00;;;;;;5093546;28;20455;-65
2023/08/12 18:06:48;;;;;;;8.23;4.40;;;25.40;98.00;;;;;;5094485;28;20969;-65
2023/08/12 18:09:15;;;;;;;6.27;4.23;;;25.50;98.00;;;;;;5094801;28;20455;-66
2023/08/12 18:11:43;;;;;;;9.30;4.67;;;25.40;98.00;;;;;;5093720;28;20600;-66
2023/08/12 18:14:11;;;;;;;6.13;4.33;;;25.50;98.00;;;;;;5093638;28;20448;-66
2023/08/12 18:16:39;;;;;;;7.30;4.47;;;25.60;98.00;;;;;;5094695;28;20448;-66
2023/08/12 18:19:06;;;;;;;7.13;4.37;;;25.60;98.00;;;;;;5094813;28;20467;-67
2023/08/12 18:21:33;;;;;;;8.80;4.93;;;25.70;98.00;;;;;;5094624;28;21140;-67
2023/08/12 18:24:00;;;;;;;6.20;3.97;;;25.60;98.00;;;;;;5094707;28;20452;-66
2023/08/12 18:26:27;;;;;;;9.63;4.33;;;25.50;98.00;;;;;;5094522;28;20479;-66
2023/08/12 18:28:55;;;;;;;6.60;4.20;;;25.50;98.00;;;;;;5094616;28;20941;-66
2023/08/12 18:31:22;;;;;;;7.07;4.00;;;25.60;98.00;;;;;;5093582;28;20449;-65
2023/08/12 18:33:51;;;;;;;6.90;4.40;;;25.60;98.00;;;;;;5094654;28;20493;-66
2023/08/12 18:36:17;;;;;;;6.37;4.27;;;25.60;98.00;;;;;;5094580;28;20862;-66
2023/08/12 18:38:45;;;;;;;6.87;4.30;;;25.60;98.00;;;;;;5094378;28;20455;-65
2023/08/12 18:41:13;;;;;;;8.10;4.83;;;25.50;98.00;;;;;;5094290;28;20546;-64
2023/08/12 18:43:40;;;;;;;7.20;4.17;;;25.50;98.00;;;;;;5094321;28;20456;-67
2023/08/12 18:46:09;;;;;;;8.50;4.40;;;25.50;98.00;;;;;;5094065;28;20480;-64
2023/08/12 18:48:36;;;;;;;7.43;4.93;;;25.40;98.00;;;;;;5093962;28;20849;-64
2023/08/12 18:51:06;;;;;;;7.80;4.70;;;24.90;98.00;;;;;;5094108;28;20849;-64
2023/08/12 18:53:33;;;;;;;6.80;4.20;;;24.70;98.00;;;;;;5093966;28;20940;-63
2023/08/12 18:56:01;;;;;;;7.73;4.50;;;24.50;98.00;;;;;;5093966;28;20464;-64
2023/08/12 18:58:29;;;;;;;7.20;4.20;;;24.30;98.00;;;;;;5092696;28;20451;-64
2023/08/12 19:00:56;;;;;;;8.03;4.70;;;24.10;98.00;;;;;;5093849;28;20452;-64
2023/08/12 19:03:23;;;;;;;7.33;4.83;;;24.00;98.00;;;;;;5093855;28;20823;-65
2023/08/12 19:05:57;;;;;;;8.50;5.03;;;23.70;98.00;;;;;;5093408;28;20487;-65
2023/08/12 19:08:25;;;;;;;9.67;5.10;;;23.60;98.00;;;;;;5094023;28;20846;-64
2023/08/12 19:10:55;;;;;;;9.83;5.40;;;23.50;98.00;;;;;;5093767;28;20448;-64
2023/08/12 19:13:22;;;;;;;16.30;6.10;;;23.40;98.00;;;;;;5093732;28;20480;-64
2023/08/12 19:15:50;;;;;;;11.07;5.73;;;23.40;98.00;;;;;;5093654;28;20451;-64
2023/08/12 19:18:17;;;;;;;9.00;5.53;;;23.40;98.00;;;;;;5093698;28;20513;-63
2023/08/12 19:20:44;;;;;;;9.80;5.20;;;23.20;98.00;;;;;;5093560;28;20455;-64
2023/08/12 19:23:13;;;;;;;9.10;5.10;;;23.10;98.00;;;;;;5093591;28;20444;-64
2023/08/12 19:25:41;;;;;;;10.80;5.80;;;23.00;98.00;;;;;;5093535;28;20459;-62
2023/08/12 19:28:08;;;;;;;8.67;5.30;;;23.00;98.00;;;;;;5093512;28;20455;-65
2023/08/12 19:30:36;;;;;;;8.20;5.47;;;22.90;98.00;;;;;;5093655;28;20884;-65
2023/08/12 19:33:03;;;;;;;8.00;5.20;;;22.80;98.00;;;;;;5093471;28;20867;-71
2023/08/12 19:35:30;;;;;;;8.47;5.17;;;22.70;98.00;;;;;;5092723;28;20440;-72
2023/08/12 19:37:59;;;;;;;8.40;4.90;;;22.80;98.00;;;;;;5093197;28;20456;-71
2023/08/12 19:40:27;;;;;;;8.27;4.77;;;22.80;98.00;;;;;;5093231;28;20491;-71
2023/08/12 19:42:55;;;;;;;9.23;5.50;;;22.80;98.00;;;;;;5092841;28;20946;-71
2023/08/12 19:45:23;;;;;;;10.50;4.80;;;22.90;98.00;;;;;;5092748;28;20444;-71
2023/08/12 19:47:51;;;;;;;10.17;5.40;;;22.80;98.00;;;;;;5092574;28;20487;-71
2023/08/12 19:50:18;;;;;;;8.00;4.90;;;22.70;98.00;;;;;;5092621;28;20452;-71
2023/08/12 19:52:45;;;;;;;8.40;4.97;;;22.70;98.00;;;;;;5092655;28;20448;-71
2023/08/12 19:55:12;;;;;;;8.10;5.03;;;22.90;98.00;;;;;;5092746;28;20539;-71
2023/08/12 19:57:41;;;;;;;9.17;4.80;;;22.90;98.00;;;;;;5092612;28;20649;-71
2023/08/12 20:00:11;;;;;;;7.70;5.37;;;22.90;98.00;;;;;;5092801;28;20456;-72
2023/08/12 20:02:42;;;;;;;7.43;4.60;;;22.80;98.00;;;;;;5092459;28;20525;-71
2023/08/12 20:05:15;;;;;;;8.63;5.23;;;22.80;98.00;;;;;;5091106;28;20505;-71
2023/08/12 20:07:42;;;;;;;8.70;5.30;;;22.70;98.00;;;;;;5090528;28;20548;-71
2023/08/12 20:10:10;;;;;;;8.50;4.60;;;22.50;98.00;;;;;;5091986;28;20876;-71
2023/08/12 20:12:37;;;;;;;6.90;5.10;;;22.50;98.00;;;;;;5091980;28;20905;-72
2023/08/12 20:15:06;;;;;;;9.80;5.37;;;22.50;98.00;;;;;;5091309;28;20448;-71
2023/08/12 20:17:34;;;;;;;7.73;4.53;;;22.40;98.00;;;;;;5092031;28;20535;-71
2023/08/12 20:20:02;;;;;;;10.40;5.23;;;22.40;98.00;;;;;;5091883;28;21069;-71